Time;durP1;ratioP1;P1;durP2;ratioP2;P2;SDS_P1;SDS_P2;PMS_P1;PMS_P2;Temp;Humidity;BMP_temperature;BMP_pressure;BME280_temperature;BME280_humidity;BME280_pressure;Samples;Min_cycle;Max_cycle;Signal;HPM_P1;HPM_P2
2022/01/23 00:00:37;;;;;;;4.72;1.48;;;6.50;99.90;;;;;;5009961;28;20084;-83
2022/01/23 00:02:38;;;;;;;6.45;1.40;;;6.50;99.90;;;;;;5015738;28;20533;-83
2022/01/23 00:05:07;;;;;;;3.30;1.30;;;6.50;99.90;;;;;;5010276;28;20026;-83
2022/01/23 00:07:33;;;;;;;5.28;1.35;;;6.50;99.90;;;;;;5008687;28;20033;-83
2022/01/23 00:10:00;;;;;;;3.13;1.33;;;6.50;99.90;;;;;;5008943;28;20072;-82
2022/01/23 00:12:28;;;;;;;6.72;1.20;;;6.40;99.90;;;;;;5009860;28;20030;-83
2022/01/23 00:17:38;;;;;;;4.68;1.33;;;6.40;99.90;;;;;;5009783;28;20057;-83
2022/01/23 00:20:07;;;;;;;7.65;1.70;;;6.50;99.90;;;;;;5009983;28;20026;-82
2022/01/23 00:30:32;;;;;;;6.30;1.40;;;6.30;99.90;;;;;;5009694;28;20045;-82
2022/01/23 00:33:00;;;;;;;4.85;1.38;;;6.30;99.90;;;;;;5010075;28;20033;-83
2022/01/23 00:35:27;;;;;;;3.03;1.00;;;6.20;99.90;;;;;;5013571;28;20036;-83
2022/01/23 00:37:54;;;;;;;5.72;1.48;;;6.00;99.90;;;;;;5013654;28;20045;-83
2022/01/23 00:40:20;;;;;;;4.45;1.15;;;5.90;99.90;;;;;;5012444;28;20026;-83
2022/01/23 00:42:47;;;;;;;2.97;1.02;;;5.90;99.90;;;;;;5013405;28;20490;-82
2022/01/23 00:45:48;;;;;;;3.67;1.00;;;5.70;99.90;;;;;;5013210;28;20097;-82
2022/01/23 00:48:08;;;;;;;2.58;1.10;;;5.70;99.90;;;;;;5012957;28;20045;-83
2022/01/23 00:50:39;;;;;;;5.60;1.17;;;5.70;99.90;;;;;;5012310;28;20105;-83
2022/01/23 00:53:10;;;;;;;4.20;1.55;;;5.70;99.90;;;;;;5013095;28;20425;-83
2022/01/23 00:55:40;;;;;;;2.10;0.88;;;5.60;99.90;;;;;;5013292;28;20024;-83
2022/01/23 00:58:06;;;;;;;7.22;1.42;;;5.70;99.90;;;;;;5011727;28;20036;-83
2022/01/23 01:00:31;;;;;;;4.03;1.02;;;5.80;99.90;;;;;;5011887;28;20117;-83
2022/01/23 01:03:01;;;;;;;3.78;1.23;;;5.80;99.90;;;;;;5011702;28;20026;-83
2022/01/23 01:05:27;;;;;;;3.08;1.05;;;5.80;99.90;;;;;;5006123;28;20457;-82
2022/01/23 01:07:54;;;;;;;4.15;1.35;;;5.90;99.90;;;;;;5013286;28;20033;-82
2022/01/23 01:10:29;;;;;;;2.50;1.60;;;5.90;99.90;;;;;;5011776;28;20034;-82
2022/01/23 01:12:59;;;;;;;3.25;0.90;;;6.00;99.90;;;;;;5011653;28;20065;-83
2022/01/23 01:31:32;;;;;;;3.25;0.95;;;5.60;99.90;;;;;;5012385;28;20036;-83
2022/01/23 01:34:06;;;;;;;1.60;0.88;;;5.50;99.90;;;;;;5012937;28;20105;-83
2022/01/23 01:36:49;;;;;;;3.10;1.00;;;5.50;99.90;;;;;;5005035;28;20113;-82
2022/01/23 01:39:18;;;;;;;4.18;1.00;;;5.60;99.90;;;;;;5011171;28;20034;-82
2022/01/23 01:41:45;;;;;;;2.22;0.85;;;5.60;99.90;;;;;;5012206;28;20485;-83
2022/01/23 01:44:12;;;;;;;2.63;1.05;;;5.60;99.90;;;;;;5012066;28;20037;-83
2022/01/23 01:46:38;;;;;;;1.20;0.80;;;5.70;99.90;;;;;;5010546;28;20084;-83
2022/01/23 01:49:05;;;;;;;2.33;1.00;;;5.70;99.90;;;;;;5011091;28;20026;-83
2022/01/23 01:51:33;;;;;;;3.97;1.10;;;5.70;99.90;;;;;;5012568;28;20084;-83
2022/01/23 01:54:06;;;;;;;3.15;1.40;;;5.70;99.90;;;;;;5010764;28;20401;-82
2022/01/23 01:56:40;;;;;;;2.08;0.80;;;5.80;99.90;;;;;;5011943;28;20536;-82
2022/01/23 02:09:27;;;;;;;1.40;0.88;;;5.80;99.90;;;;;;5011099;28;20091;-83
2022/01/23 02:12:23;;;;;;;1.38;0.80;;;5.80;99.90;;;;;;5011902;28;20410;-82
2022/01/23 02:17:26;;;;;;;3.33;0.85;;;5.90;99.90;;;;;;5011804;28;20055;-83
2022/01/23 02:22:53;;;;;;;2.22;0.90;;;5.90;99.90;;;;;;5011718;28;20033;-83
2022/01/23 02:52:55;;;;;;;1.38;0.70;;;6.10;99.90;;;;;;5004634;28;20052;-82
2022/01/23 02:55:34;;;;;;;2.42;0.65;;;6.10;99.90;;;;;;5011015;28;20021;-82
2022/01/23 02:58:04;;;;;;;1.23;0.70;;;6.10;99.90;;;;;;5008913;28;20050;-82
2022/01/23 03:00:37;;;;;;;1.05;0.70;;;6.10;99.90;;;;;;5011178;28;20026;-82
2022/01/23 03:03:12;;;;;;;2.65;0.70;;;6.10;99.90;;;;;;5009818;28;20038;-83
2022/01/23 03:05:39;;;;;;;3.80;0.93;;;6.10;99.90;;;;;;5011199;28;20489;-83
2022/01/23 03:10:42;;;;;;;2.75;0.63;;;6.20;99.90;;;;;;5011090;28;20121;-83
2022/01/23 03:24:32;;;;;;;3.80;0.70;;;6.20;99.90;;;;;;5003144;28;20045;-83
2022/01/23 03:29:22;;;;;;;4.43;0.80;;;6.30;99.90;;;;;;5005663;28;20088;-82
2022/01/23 03:34:16;;;;;;;2.55;0.98;;;6.30;99.90;;;;;;5010456;28;20033;-82
2022/01/23 03:36:42;;;;;;;2.15;0.82;;;6.30;99.90;;;;;;5010417;28;20029;-83
2022/01/23 03:39:10;;;;;;;3.58;0.98;;;6.30;99.90;;;;;;5008982;28;20589;-83
2022/01/23 03:41:37;;;;;;;2.63;1.20;;;6.30;99.90;;;;;;5010447;28;20022;-83
2022/01/23 03:44:05;;;;;;;3.35;1.00;;;6.30;99.90;;;;;;5009939;28;20026;-83
2022/01/23 03:46:47;;;;;;;2.53;0.90;;;6.30;99.90;;;;;;5010653;28;20022;-82
2022/01/23 03:49:33;;;;;;;2.88;1.00;;;6.30;99.90;;;;;;5010457;28;20061;-82
2022/01/23 03:52:03;;;;;;;3.15;1.17;;;6.30;99.90;;;;;;5011932;28;20030;-83
2022/01/23 03:54:29;;;;;;;2.10;0.98;;;6.30;99.90;;;;;;5003906;28;20457;-82
2022/01/23 03:56:56;;;;;;;2.30;1.10;;;6.30;99.90;;;;;;5011635;28;20034;-83
2022/01/23 03:59:22;;;;;;;2.78;1.55;;;6.30;99.90;;;;;;5010115;28;20034;-83
2022/01/23 04:01:47;;;;;;;1.80;0.90;;;6.40;99.90;;;;;;5011485;28;20021;-83
2022/01/23 04:06:57;;;;;;;3.55;1.00;;;6.30;99.90;;;;;;5005397;28;20037;-82
2022/01/23 04:09:22;;;;;;;3.58;0.98;;;6.30;99.90;;;;;;5011283;28;20109;-83
2022/01/23 04:11:49;;;;;;;2.25;0.80;;;6.30;99.90;;;;;;5011434;28;20072;-83
2022/01/23 04:14:16;;;;;;;1.80;1.10;;;6.40;99.90;;;;;;5010206;28;20036;-82
2022/01/23 04:17:06;;;;;;;11.02;1.45;;;6.30;99.90;;;;;;5010846;28;20592;-83
2022/01/23 04:33:54;;;;;;;1.63;0.98;;;6.30;99.90;;;;;;5011404;28;20152;-82
2022/01/23 04:59:55;;;;;;;1.92;1.30;;;6.10;99.90;;;;;;5011455;28;20107;-82
2022/01/23 05:02:59;;;;;;;2.15;1.70;;;6.10;99.90;;;;;;5009716;28;20473;-83
2022/01/23 05:05:07;;;;;;;3.42;1.40;;;6.10;99.90;;;;;;5010935;28;20030;-83
2022/01/23 05:07:35;;;;;;;4.75;1.63;;;6.20;99.90;;;;;;5011189;28;20072;-82
2022/01/23 05:10:00;;;;;;;3.35;1.60;;;6.10;99.90;;;;;;5011015;28;20053;-82
2022/01/23 05:12:30;;;;;;;4.05;1.70;;;6.20;99.90;;;;;;5009769;28;20049;-83
2022/01/23 05:14:56;;;;;;;3.35;1.73;;;6.10;99.90;;;;;;5010779;28;20061;-83
2022/01/23 05:17:22;;;;;;;4.78;1.98;;;6.20;99.90;;;;;;5010760;28;20049;-83
2022/01/23 05:19:48;;;;;;;3.55;1.80;;;6.20;99.90;;;;;;5011251;28;20017;-82
2022/01/23 05:22:27;;;;;;;6.05;2.20;;;6.20;99.90;;;;;;5014396;28;20030;-83
2022/01/23 05:25:01;;;;;;;5.53;2.10;;;6.20;99.90;;;;;;5013081;28;20068;-82
2022/01/23 05:27:29;;;;;;;5.93;2.10;;;6.00;99.90;;;;;;5007306;28;20104;-82
2022/01/23 05:29:57;;;;;;;5.32;2.30;;;6.10;99.90;;;;;;5014360;28;20381;-82
2022/01/23 05:32:25;;;;;;;7.80;2.88;;;6.10;99.90;;;;;;5005004;28;20060;-83
2022/01/23 05:34:51;;;;;;;10.45;2.55;;;6.10;99.90;;;;;;5012802;28;20481;-83
2022/01/23 05:37:16;;;;;;;7.90;2.67;;;6.10;99.90;;;;;;5013807;28;20393;-83
2022/01/23 05:39:42;;;;;;;6.93;2.63;;;6.10;99.90;;;;;;5012841;28;20054;-82
2022/01/23 05:42:08;;;;;;;6.28;3.03;;;6.10;99.90;;;;;;5013957;28;20386;-82
2022/01/23 05:44:40;;;;;;;8.55;2.67;;;6.10;99.90;;;;;;5012627;28;20224;-82
2022/01/23 05:47:07;;;;;;;20.45;3.05;;;6.10;99.90;;;;;;5013944;28;20025;-83
2022/01/23 05:49:33;;;;;;;6.32;2.88;;;6.00;99.90;;;;;;5005001;28;20114;-82
2022/01/23 05:51:59;;;;;;;5.72;2.85;;;6.10;99.90;;;;;;5012673;28;20117;-82
2022/01/23 05:54:24;;;;;;;7.05;2.50;;;6.10;99.90;;;;;;5011959;28;20093;-82
2022/01/23 05:56:51;;;;;;;5.85;2.80;;;6.00;99.90;;;;;;5013790;28;20033;-82
2022/01/23 05:59:16;;;;;;;6.60;2.53;;;6.00;99.90;;;;;;5005390;28;20137;-83
2022/01/23 06:01:43;;;;;;;6.03;2.80;;;6.10;99.90;;;;;;5012236;28;20050;-83
2022/01/23 06:04:09;;;;;;;6.50;3.30;;;6.10;99.90;;;;;;5012315;28;20026;-82
2022/01/23 06:06:35;;;;;;;5.22;2.92;;;6.10;99.90;;;;;;5013415;28;20040;-83
2022/01/23 06:09:00;;;;;;;5.10;2.85;;;6.10;99.90;;;;;;5012058;28;20030;-82
2022/01/23 06:11:26;;;;;;;4.55;2.17;;;6.00;99.90;;;;;;5012264;28;20109;-83
2022/01/23 06:13:51;;;;;;;5.60;2.85;;;6.10;99.90;;;;;;5012553;28;20108;-82
2022/01/23 06:16:17;;;;;;;5.28;2.78;;;6.00;99.90;;;;;;5007396;28;20025;-83
2022/01/23 06:18:44;;;;;;;5.65;2.80;;;6.00;99.90;;;;;;5006243;28;20034;-82
2022/01/23 06:21:11;;;;;;;4.78;2.92;;;6.00;99.90;;;;;;5008281;28;20103;-82
2022/01/23 06:23:37;;;;;;;5.47;2.60;;;6.00;99.90;;;;;;5011790;28;20049;-83
2022/01/23 06:26:03;;;;;;;6.85;2.63;;;6.00;99.90;;;;;;5013236;28;20025;-82
2022/01/23 06:28:46;;;;;;;5.93;2.90;;;6.00;99.90;;;;;;5013411;28;20084;-82
2022/01/23 06:31:12;;;;;;;6.32;2.95;;;6.00;99.90;;;;;;4995881;28;20025;-83
2022/01/23 06:33:37;;;;;;;5.05;2.22;;;6.10;99.90;;;;;;4994768;28;20022;-82
2022/01/23 06:36:04;;;;;;;6.72;2.55;;;6.00;99.90;;;;;;4996198;28;20026;-82
2022/01/23 06:38:30;;;;;;;5.13;2.60;;;6.00;99.90;;;;;;4995195;28;20125;-82
2022/01/23 06:40:55;;;;;;;4.30;2.33;;;6.00;99.90;;;;;;4994804;28;20113;-82
2022/01/23 06:43:21;;;;;;;7.50;3.22;;;6.00;99.90;;;;;;5009586;28;20398;-82
2022/01/23 06:45:46;;;;;;;8.15;3.22;;;6.00;99.90;;;;;;5014341;28;20470;-83
2022/01/23 06:48:12;;;;;;;9.75;3.47;;;6.10;99.90;;;;;;5014201;28;20029;-83
2022/01/23 06:50:38;;;;;;;30.58;4.85;;;6.00;99.90;;;;;;5014591;28;20025;-82
2022/01/23 06:53:03;;;;;;;127.07;8.50;;;6.00;99.90;;;;;;5014945;28;20101;-82
2022/01/23 06:55:29;;;;;;;73.22;5.95;;;6.10;99.90;;;;;;5012974;28;20105;-83
2022/01/23 06:57:54;;;;;;;6.78;4.00;;;6.00;99.90;;;;;;5012388;28;20034;-82
2022/01/23 07:00:20;;;;;;;10.88;3.70;;;6.00;99.90;;;;;;5011479;28;20395;-82
2022/01/23 07:02:45;;;;;;;7.30;3.50;;;6.10;99.90;;;;;;5011200;28;20056;-82
2022/01/23 07:05:11;;;;;;;8.07;3.42;;;6.00;99.90;;;;;;5011443;28;20018;-82
2022/01/23 07:07:36;;;;;;;39.05;6.10;;;6.00;99.90;;;;;;5012544;28;20018;-83
2022/01/23 07:10:04;;;;;;;9.90;3.38;;;6.00;99.90;;;;;;5011073;28;20026;-83
2022/01/23 07:12:29;;;;;;;10.85;3.85;;;6.00;99.90;;;;;;5011201;28;20506;-82
2022/01/23 07:14:55;;;;;;;9.93;4.28;;;6.10;99.90;;;;;;5011310;28;20026;-82
2022/01/23 07:17:21;;;;;;;9.68;3.65;;;6.00;99.90;;;;;;5011042;28;20504;-82
2022/01/23 07:19:47;;;;;;;6.50;3.03;;;6.00;99.90;;;;;;5012736;28;20029;-82
2022/01/23 07:22:12;;;;;;;10.88;3.92;;;6.10;99.90;;;;;;5012155;28;20023;-82
2022/01/23 07:24:38;;;;;;;10.25;4.07;;;6.10;99.90;;;;;;5011127;28;20022;-82
2022/01/23 07:27:13;;;;;;;8.82;3.78;;;6.00;99.90;;;;;;5010776;28;20037;-82
2022/01/23 07:29:41;;;;;;;8.20;4.07;;;6.00;99.90;;;;;;5012250;28;20152;-83
2022/01/23 07:32:08;;;;;;;7.50;3.60;;;6.10;99.90;;;;;;5010928;28;20125;-82
2022/01/23 07:34:34;;;;;;;8.57;3.78;;;6.10;99.90;;;;;;5010815;28;20112;-82
2022/01/23 07:37:00;;;;;;;7.15;3.47;;;6.10;99.90;;;;;;5012104;28;20128;-82
2022/01/23 07:39:26;;;;;;;11.68;3.65;;;6.10;99.90;;;;;;5012190;28;20036;-81
2022/01/23 07:41:52;;;;;;;11.43;3.85;;;6.10;99.90;;;;;;5010845;28;20430;-82
2022/01/23 07:44:17;;;;;;;7.10;3.50;;;6.10;99.90;;;;;;5009872;28;20041;-82
2022/01/23 07:46:43;;;;;;;6.28;3.80;;;6.10;99.90;;;;;;5012002;28;20018;-81
2022/01/23 07:49:09;;;;;;;8.60;3.25;;;6.10;99.90;;;;;;5010838;28;20057;-81
2022/01/23 07:51:35;;;;;;;8.85;4.00;;;6.10;99.90;;;;;;4994945;28;20025;-82
2022/01/23 07:54:01;;;;;;;12.80;4.80;;;6.10;99.90;;;;;;4997128;28;20482;-82
2022/01/23 07:56:26;;;;;;;10.75;4.05;;;6.10;99.90;;;;;;4997465;28;20030;-82
2022/01/23 07:58:53;;;;;;;16.02;9.93;;;6.20;99.90;;;;;;5006521;28;20040;-81
2022/01/23 08:01:19;;;;;;;10.82;6.90;;;6.10;99.90;;;;;;5008497;28;20032;-81
2022/01/23 08:03:45;;;;;;;14.02;6.10;;;6.20;99.90;;;;;;5011390;28;20097;-81
2022/01/23 08:06:13;;;;;;;11.73;4.18;;;6.20;99.90;;;;;;5008566;28;20030;-82
2022/01/23 08:08:39;;;;;;;8.00;4.13;;;6.10;99.90;;;;;;5007878;28;20116;-81
2022/01/23 08:11:06;;;;;;;12.73;4.55;;;6.20;99.90;;;;;;5010060;28;20033;-82
2022/01/23 08:13:32;;;;;;;9.77;3.80;;;6.20;99.90;;;;;;5001946;28;20022;-81
2022/01/23 08:15:58;;;;;;;10.25;3.75;;;6.20;99.90;;;;;;5007581;28;20025;-82
2022/01/23 08:18:23;;;;;;;8.18;3.20;;;6.20;99.90;;;;;;5002602;28;20205;-82
2022/01/23 08:20:49;;;;;;;8.32;4.13;;;6.20;99.90;;;;;;4997201;28;20023;-81
2022/01/23 08:23:14;;;;;;;10.55;3.80;;;6.30;99.90;;;;;;5002708;28;20018;-82
2022/01/23 08:25:40;;;;;;;9.43;3.78;;;6.30;99.90;;;;;;5000637;28;20033;-81
2022/01/23 08:28:07;;;;;;;8.90;3.72;;;6.30;99.90;;;;;;5007681;28;20033;-81
2022/01/23 08:30:33;;;;;;;9.60;3.75;;;6.30;99.90;;;;;;5006510;28;20065;-81
2022/01/23 08:32:59;;;;;;;7.80;3.60;;;6.30;99.90;;;;;;5006187;28;20481;-82
2022/01/23 08:35:26;;;;;;;9.20;4.03;;;6.40;99.90;;;;;;5006170;28;20026;-82
2022/01/23 08:37:52;;;;;;;9.50;4.43;;;6.40;99.90;;;;;;5009223;28;20454;-81
2022/01/23 08:40:23;;;;;;;7.35;3.70;;;6.40;99.90;;;;;;4998895;28;20024;-82
2022/01/23 08:42:51;;;;;;;10.75;5.03;;;6.40;99.90;;;;;;5005376;28;20040;-82
2022/01/23 08:45:20;;;;;;;15.13;5.55;;;6.40;99.90;;;;;;5010837;28;20030;-85
2022/01/23 08:47:47;;;;;;;10.52;4.55;;;6.50;99.90;;;;;;5016343;28;20030;-81
2022/01/23 08:50:13;;;;;;;8.80;3.95;;;6.40;99.90;;;;;;5010266;28;20076;-82
2022/01/23 08:52:39;;;;;;;10.88;4.43;;;6.60;99.90;;;;;;5010351;28;20025;-82
2022/01/23 08:55:05;;;;;;;9.48;4.35;;;6.40;99.90;;;;;;5012654;28;20026;-81
2022/01/23 08:57:30;;;;;;;10.00;4.03;;;6.50;99.90;;;;;;5013691;28;20037;-82
2022/01/23 08:59:56;;;;;;;8.90;4.03;;;6.50;99.90;;;;;;5011170;28;20482;-81
2022/01/23 09:02:21;;;;;;;10.55;4.20;;;6.50;99.90;;;;;;5009811;28;20040;-81
2022/01/23 09:04:47;;;;;;;7.72;4.03;;;6.50;99.90;;;;;;4999849;28;20042;-82
2022/01/23 09:07:14;;;;;;;8.45;4.40;;;6.60;99.90;;;;;;5004008;28;20080;-83
2022/01/23 09:09:41;;;;;;;10.38;4.45;;;6.50;99.90;;;;;;5009109;28;20044;-83
2022/01/23 09:14:40;;;;;;;10.75;4.78;;;6.60;99.90;;;;;;5003338;28;20022;-83
2022/01/23 09:17:06;;;;;;;9.88;4.65;;;6.70;99.90;;;;;;5002182;28;20457;-82
2022/01/23 09:19:32;;;;;;;8.52;4.50;;;6.70;99.90;;;;;;5002544;28;20026;-82
2022/01/23 09:22:28;;;;;;;9.85;4.75;;;6.90;99.90;;;;;;5014574;28;20057;-84
2022/01/23 09:25:00;;;;;;;10.07;4.57;;;6.80;99.90;;;;;;5016615;28;20025;-83
2022/01/23 09:27:26;;;;;;;11.35;4.72;;;6.80;99.90;;;;;;5017965;28;20026;-83
2022/01/23 09:29:54;;;;;;;10.30;5.15;;;6.80;99.90;;;;;;5016850;28;20014;-84
2022/01/23 09:32:22;;;;;;;8.77;4.60;;;6.80;99.90;;;;;;5014738;28;20022;-84
2022/01/23 09:34:51;;;;;;;12.80;5.38;;;6.90;99.90;;;;;;5013555;28;20088;-84
2022/01/23 09:37:18;;;;;;;9.57;4.95;;;7.00;99.90;;;;;;5013139;28;20026;-83
2022/01/23 09:39:46;;;;;;;10.75;4.72;;;6.80;99.90;;;;;;5013360;28;20061;-84
2022/01/23 09:42:34;;;;;;;15.00;6.15;;;6.90;99.90;;;;;;5014178;28;20060;-83
2022/01/23 09:45:04;;;;;;;10.45;4.75;;;7.00;99.90;;;;;;5007051;28;20025;-84
2022/01/23 09:47:30;;;;;;;13.77;5.43;;;7.00;99.90;;;;;;5013006;28;20026;-84
2022/01/23 09:49:57;;;;;;;11.80;4.75;;;7.10;99.90;;;;;;5012915;28;20065;-84
2022/01/23 09:52:24;;;;;;;12.30;5.72;;;7.00;99.90;;;;;;5012904;28;20497;-83
2022/01/23 09:55:00;;;;;;;11.35;5.72;;;7.00;99.90;;;;;;5013012;28;20030;-84
2022/01/23 09:57:31;;;;;;;12.05;5.80;;;7.10;99.90;;;;;;5012521;28;20484;-84
2022/01/23 09:59:59;;;;;;;12.68;6.30;;;7.20;99.90;;;;;;5014215;28;20486;-83
2022/01/23 10:02:25;;;;;;;14.35;5.53;;;7.20;99.90;;;;;;5014214;28;20030;-84
2022/01/23 10:04:55;;;;;;;10.38;6.03;;;7.20;99.90;;;;;;5013630;28;20363;-84
2022/01/23 10:07:21;;;;;;;14.00;6.60;;;7.30;99.90;;;;;;5011846;28;20029;-83
2022/01/23 10:10:03;;;;;;;12.18;6.05;;;7.30;99.90;;;;;;5013647;28;20380;-83
2022/01/23 10:12:29;;;;;;;15.88;7.25;;;7.40;99.90;;;;;;5014027;28;20459;-84
2022/01/23 10:14:56;;;;;;;11.60;6.55;;;7.40;99.90;;;;;;5012479;28;20053;-84
2022/01/23 10:17:22;;;;;;;11.43;5.90;;;7.50;99.90;;;;;;5013578;28;20426;-84
2022/01/23 10:19:48;;;;;;;11.75;6.28;;;7.50;99.90;;;;;;5013471;28;20161;-84
2022/01/23 10:22:15;;;;;;;12.02;7.15;;;7.50;99.90;;;;;;5012685;28;20048;-84
2022/01/23 10:24:41;;;;;;;14.65;6.93;;;7.50;99.90;;;;;;5013692;28;20287;-83
2022/01/23 10:27:07;;;;;;;14.65;6.28;;;7.60;99.90;;;;;;5013630;28;20101;-83
2022/01/23 10:29:37;;;;;;;13.80;6.47;;;7.80;99.90;;;;;;5012571;28;20041;-84
2022/01/23 10:32:22;;;;;;;14.23;6.40;;;7.70;99.90;;;;;;5013058;28;20034;-83
2022/01/23 10:35:01;;;;;;;11.18;5.32;;;7.70;99.90;;;;;;5013217;28;20034;-83
2022/01/23 10:37:31;;;;;;;10.70;5.53;;;8.00;99.90;;;;;;5013549;28;20034;-83
2022/01/23 10:40:00;;;;;;;16.65;6.50;;;8.30;99.90;;;;;;5004291;28;20056;-84
2022/01/23 10:47:53;;;;;;;10.90;4.93;;;8.30;99.90;;;;;;5013503;28;20404;-84
2022/01/23 10:50:22;;;;;;;11.80;6.22;;;8.40;99.90;;;;;;4999935;28;20027;-83
2022/01/23 10:52:50;;;;;;;12.02;5.55;;;8.50;99.90;;;;;;5005148;28;20027;-84
2022/01/23 10:55:50;;;;;;;9.77;5.50;;;8.60;98.20;;;;;;4997395;28;20029;-84
2022/01/23 10:58:21;;;;;;;9.95;5.93;;;8.50;13.90;;;;;;5000456;28;20053;-84
2022/01/23 11:00:47;;;;;;;11.82;6.00;;;8.60;1.00;;;;;;5012440;28;20183;-83
2022/01/23 11:03:22;;;;;;;10.65;5.45;;;8.60;1.00;;;;;;5011369;28;20430;-83
2022/01/23 11:05:48;;;;;;;7.15;4.38;;;8.50;1.00;;;;;;5005938;28;20038;-84
2022/01/23 11:08:30;;;;;;;10.75;4.47;;;8.70;1.00;;;;;;4995312;28;20104;-83
2022/01/23 11:10:57;;;;;;;8.43;3.80;;;8.70;1.00;;;;;;5015846;28;20022;-83
2022/01/23 11:19:19;;;;;;;5.50;3.03;;;8.70;99.90;;;;;;5000759;28;20117;-84
2022/01/23 11:21:45;;;;;;;7.15;3.50;;;8.80;99.90;;;;;;5002357;28;20042;-83
2022/01/23 11:24:13;;;;;;;8.18;3.40;;;8.90;99.90;;;;;;5006495;28;20062;-83
2022/01/23 11:26:39;;;;;;;6.50;3.20;;;8.80;99.90;;;;;;5011621;28;20025;-83
2022/01/23 11:29:13;;;;;;;5.60;3.22;;;8.90;99.90;;;;;;5011337;28;20033;-83
2022/01/23 11:31:39;;;;;;;5.78;2.80;;;8.90;99.90;;;;;;5013834;28;20026;-83
2022/01/23 11:34:06;;;;;;;5.95;3.03;;;9.00;99.90;;;;;;5011429;28;20041;-83
2022/01/23 11:36:32;;;;;;;4.93;2.92;;;9.00;99.90;;;;;;5010991;28;20026;-82
2022/01/23 11:39:07;;;;;;;5.97;3.05;;;9.10;99.90;;;;;;5010821;28;20169;-82
2022/01/23 11:56:25;;;;;;;9.15;3.88;;;9.00;99.90;;;;;;5008148;28;20083;-82
2022/01/23 11:59:12;;;;;;;5.63;3.83;;;8.90;99.90;;;;;;5005515;28;20101;-84
2022/01/23 12:01:40;;;;;;;7.30;4.20;;;8.90;99.90;;;;;;4996886;28;20030;-82
2022/01/23 12:04:09;;;;;;;5.38;3.38;;;9.00;99.90;;;;;;5008844;28;20029;-82
2022/01/23 12:06:37;;;;;;;8.25;4.03;;;9.00;99.90;;;;;;5009675;28;20026;-82
2022/01/23 12:09:17;;;;;;;5.82;4.00;;;9.00;99.90;;;;;;5010349;28;20061;-82
2022/01/23 12:12:02;;;;;;;;;;;8.90;99.90;;;;;;5010755;28;20029;-82
2022/01/23 12:17:11;;;;;;;6.57;4.00;;;9.00;99.90;;;;;;5014478;28;20050;-82
2022/01/23 12:19:45;;;;;;;8.10;3.97;;;9.00;99.90;;;;;;5013265;28;20029;-82
2022/01/23 12:22:27;;;;;;;9.02;3.75;;;9.10;99.90;;;;;;5010224;28;20048;-82
2022/01/23 12:24:56;;;;;;;10.45;4.68;;;9.00;99.90;;;;;;5012720;28;20018;-81
2022/01/23 12:27:26;;;;;;;8.57;4.80;;;9.00;99.90;;;;;;5013312;28;20033;-81
2022/01/23 12:29:53;;;;;;;;;;;8.90;99.90;;;;;;5012745;28;20087;-82
2022/01/23 12:32:33;;;;;;;6.90;3.58;;;8.90;99.90;;;;;;5010180;28;19916;-81
2022/01/23 12:35:02;;;;;;;6.85;3.60;;;8.90;99.90;;;;;;4993586;28;20062;-80
2022/01/23 12:38:00;;;;;;;8.43;4.05;;;9.00;99.90;;;;;;5015276;28;20077;-80
2022/01/23 12:40:31;;;;;;;8.52;3.88;;;8.90;99.90;;;;;;5020658;28;20402;-81
2022/01/23 12:43:25;;;;;;;7.88;3.97;;;8.80;99.90;;;;;;5018071;28;20034;-80
2022/01/23 12:46:01;;;;;;;7.80;4.07;;;8.90;99.90;;;;;;5019647;28;20038;-81
2022/01/23 12:48:29;;;;;;;7.55;3.75;;;8.90;99.90;;;;;;5021910;28;20026;-80
2022/01/23 12:50:56;;;;;;;7.93;3.90;;;9.00;99.90;;;;;;5020840;28;20025;-80
2022/01/23 12:53:33;;;;;;;11.02;3.85;;;9.00;99.90;;;;;;5022578;28;20038;-81
2022/01/23 12:56:12;;;;;;;8.40;4.18;;;9.00;99.90;;;;;;5025158;28;20105;-81
2022/01/23 12:58:39;;;;;;;8.93;4.60;;;8.90;99.90;;;;;;5009058;28;20035;-83
2022/01/23 13:01:07;;;;;;;6.53;3.65;;;8.80;99.90;;;;;;4994766;28;20030;-83
2022/01/23 13:03:34;;;;;;;11.20;4.10;;;8.80;99.90;;;;;;4994460;28;20029;-82
2022/01/23 13:06:01;;;;;;;9.45;3.40;;;8.70;99.90;;;;;;5011707;28;20030;-83
2022/01/23 13:08:28;;;;;;;7.90;3.47;;;8.60;99.90;;;;;;5003417;28;20390;-83
2022/01/23 13:13:47;;;;;;;6.63;3.67;;;8.80;99.90;;;;;;4993460;28;20022;-82
2022/01/23 13:19:15;;;;;;;7.15;3.83;;;8.70;99.90;;;;;;4997606;28;20026;-82
2022/01/23 13:30:12;;;;;;;10.32;4.88;;;8.70;99.90;;;;;;4994298;28;20037;-82
2022/01/23 13:32:43;;;;;;;5.60;3.38;;;8.70;99.90;;;;;;4999401;28;20385;-82
2022/01/23 13:35:15;;;;;;;7.88;4.47;;;8.80;99.90;;;;;;4996973;28;20030;-83
2022/01/23 13:37:45;;;;;;;9.63;5.13;;;8.70;99.90;;;;;;5005758;28;20033;-83
2022/01/23 13:40:24;;;;;;;9.03;4.27;;;8.70;99.90;;;;;;5001138;28;20116;-83
2022/01/23 13:59:22;;;;;;;9.65;5.10;;;8.60;99.90;;;;;;5014536;28;20110;-83
2022/01/23 14:02:08;;;;;;;7.78;4.78;;;8.60;99.90;;;;;;5004849;28;20113;-83
2022/01/23 14:04:40;;;;;;;6.40;4.05;;;8.60;99.90;;;;;;5005934;28;20030;-83
2022/01/23 14:07:06;;;;;;;7.43;3.95;;;8.60;99.90;;;;;;5003056;28;20600;-82
2022/01/23 14:09:43;;;;;;;9.18;4.72;;;8.50;99.90;;;;;;5006547;28;20022;-82
2022/01/23 14:12:12;;;;;;;8.00;4.43;;;8.50;99.90;;;;;;5013296;28;20038;-83
2022/01/23 14:14:54;;;;;;;7.65;4.47;;;8.50;99.90;;;;;;5020456;28;20022;-83
2022/01/23 14:17:21;;;;;;;11.35;5.30;;;8.50;99.90;;;;;;5019385;28;20480;-83
2022/01/23 14:20:16;;;;;;;6.10;4.28;;;8.50;99.90;;;;;;5016453;28;20037;-82
2022/01/23 14:22:44;;;;;;;10.60;5.80;;;8.40;99.90;;;;;;5009971;28;20120;-83
2022/01/23 14:25:18;;;;;;;9.23;5.38;;;8.40;99.90;;;;;;5007564;28;20037;-83
2022/01/23 14:28:03;;;;;;;11.25;5.95;;;8.30;99.90;;;;;;5010362;28;20025;-82
2022/01/23 14:30:30;;;;;;;12.82;6.60;;;8.30;99.90;;;;;;5019295;28;21205;-82
2022/01/23 14:33:04;;;;;;;10.13;5.53;;;8.20;99.90;;;;;;5018937;28;20523;-83
2022/01/23 14:35:32;;;;;;;7.55;4.82;;;8.20;99.90;;;;;;5019980;28;20034;-82
2022/01/23 14:38:17;;;;;;;11.88;4.72;;;8.30;99.90;;;;;;5018553;28;20049;-82
2022/01/23 14:41:02;;;;;;;8.20;3.88;;;8.20;99.90;;;;;;5008903;28;20025;-83
2022/01/23 14:43:38;;;;;;;6.10;4.15;;;8.20;99.90;;;;;;5015846;28;20029;-82
2022/01/23 14:46:06;;;;;;;65.85;10.50;;;8.10;99.90;;;;;;5016999;28;20033;-83
2022/01/23 14:48:39;;;;;;;16.73;5.35;;;8.20;99.90;;;;;;5023266;28;20036;-84
2022/01/23 14:51:06;;;;;;;7.53;4.15;;;8.10;99.90;;;;;;5018228;28;20034;-83
2022/01/23 14:53:35;;;;;;;7.10;4.50;;;8.20;99.90;;;;;;5017425;28;20134;-84
2022/01/23 14:56:04;;;;;;;7.53;4.30;;;8.00;99.90;;;;;;5017625;28;20045;-83
2022/01/23 14:58:33;;;;;;;11.68;5.00;;;8.00;99.90;;;;;;5013465;28;20046;-83
2022/01/23 15:00:59;;;;;;;10.93;4.80;;;8.00;99.90;;;;;;5019511;28;20026;-83
2022/01/23 15:03:27;;;;;;;7.43;4.40;;;7.90;99.90;;;;;;5015390;28;20030;-83
2022/01/23 15:05:54;;;;;;;7.05;3.92;;;7.90;99.90;;;;;;5014090;28;20044;-83
2022/01/23 15:08:22;;;;;;;5.78;4.18;;;7.80;99.90;;;;;;5009887;28;20050;-83
2022/01/23 15:10:50;;;;;;;8.82;4.82;;;7.90;99.90;;;;;;5010808;28;20033;-83
2022/01/23 15:13:16;;;;;;;8.35;4.05;;;8.00;99.90;;;;;;5012272;28;20148;-84
2022/01/23 15:15:42;;;;;;;10.18;4.40;;;8.00;99.90;;;;;;5023782;28;20026;-83
2022/01/23 15:18:08;;;;;;;7.30;4.07;;;7.80;99.90;;;;;;5018269;28;20045;-83
2022/01/23 15:20:35;;;;;;;7.40;4.10;;;7.80;99.90;;;;;;5013705;28;20032;-84
2022/01/23 15:23:03;;;;;;;7.10;4.10;;;7.70;99.90;;;;;;5019493;28;20401;-83
2022/01/23 15:25:29;;;;;;;5.45;3.40;;;7.80;99.90;;;;;;5019343;28;20036;-82
2022/01/23 15:27:55;;;;;;;6.47;3.90;;;7.70;99.90;;;;;;5022445;28;20029;-83
2022/01/23 15:30:23;;;;;;;7.90;3.78;;;7.70;99.90;;;;;;5026046;28;20022;-83
2022/01/23 15:32:51;;;;;;;7.82;4.35;;;7.70;99.90;;;;;;5025536;28;20009;-83
2022/01/23 15:35:18;;;;;;;6.25;3.70;;;7.60;99.90;;;;;;5019648;28;20057;-83
2022/01/23 15:37:44;;;;;;;8.88;4.45;;;7.60;99.90;;;;;;5023582;28;20034;-83
2022/01/23 15:40:12;;;;;;;9.23;4.10;;;7.50;99.90;;;;;;5019678;28;20094;-83
2022/01/23 15:42:40;;;;;;;9.10;4.07;;;7.50;99.90;;;;;;5016272;28;20034;-83
2022/01/23 15:45:07;;;;;;;6.88;4.32;;;7.50;99.90;;;;;;5016595;28;20041;-83
2022/01/23 15:47:33;;;;;;;6.72;4.25;;;7.40;99.90;;;;;;5019962;28;20034;-83
2022/01/23 15:49:59;;;;;;;6.82;4.13;;;7.40;99.90;;;;;;5001551;28;20030;-83
2022/01/23 15:52:25;;;;;;;7.47;4.10;;;7.40;99.90;;;;;;5021988;28;20030;-84
2022/01/23 15:54:51;;;;;;;7.82;4.75;;;7.40;99.90;;;;;;5024573;28;20029;-83
2022/01/23 15:57:16;;;;;;;11.27;4.32;;;7.40;1.00;;;;;;5016437;28;20072;-83
2022/01/23 15:59:42;;;;;;;8.40;4.50;;;7.40;1.00;;;;;;5012020;28;20030;-83
2022/01/23 16:02:08;;;;;;;8.50;4.60;;;7.30;1.00;;;;;;5010588;28;20034;-83
2022/01/23 16:04:37;;;;;;;8.30;4.47;;;7.30;1.00;;;;;;5008440;28;20034;-84
2022/01/23 16:07:07;;;;;;;7.43;4.13;;;7.30;1.00;;;;;;5001973;28;20124;-84
2022/01/23 16:09:34;;;;;;;8.23;4.75;;;7.30;1.00;;;;;;5009613;28;20086;-84
2022/01/23 16:12:00;;;;;;;8.45;4.45;;;7.20;1.00;;;;;;5002795;28;20018;-85
2022/01/23 16:14:26;;;;;;;9.27;5.35;;;7.20;1.00;;;;;;5007463;28;20029;-84
2022/01/23 16:16:52;;;;;;;8.73;4.95;;;7.20;1.00;;;;;;4995202;28;20525;-84